Wyndmere, North Dakota
Current Conditions -  °F | °C
As of 4:15 AM on Saturday 25 Oct 2014 (Local Time) from KGWR Reporting Station
Broken Clouds Broken Clouds  
Wind Chill: 45°   Ceiling: 12000
Heat Index: 48°   Visibility: 10mi
Dew Point: 32°   Wind: 8mph
Humidity: 54%   Direction: 270°W
Pressure: 30.06"   Gusts: NA
Location:  46.27°N, 97.13°W
Report Text: KGWR 250915Z AUTO 27007KT 10SM BKN120 09/00 A3006 RMK A01 P000
Loading
Personal Weather Stations






























Interactive Weather Map New forecast layout! Learn more

10-Day Weather Forecast

Advertisements
Track Severe Weather on mobile